Time;durP1;ratioP1;P1;durP2;ratioP2;P2;SDS_P1;SDS_P2;PMS_P1;PMS_P2;Temp;Humidity;BMP_temperature;BMP_pressure;BME280_temperature;BME280_humidity;BME280_pressure;Samples;Min_cycle;Max_cycle;Signal;HPM_P1;HPM_P2
2023/10/12 00:00:40;;;;;;;;;;;;;;;;;;;;;
2023/10/12 00:09:20;;;;;;;13.50;7.40;;;;;;;15.85;80.76;99870.69;125198;1307;115142;-67
2023/10/12 00:12:47;;;;;;;18.20;7.00;;;;;;;15.85;80.70;99875.19;125117;1319;114878;-69
2023/10/12 00:16:50;;;;;;;15.90;7.60;;;;;;;15.87;80.80;99871.13;125749;1297;114960;-69
2023/10/12 00:24:22;;;;;;;;;;;;;;;;;;;;;
2023/10/12 00:28:27;;;;;;;14.10;6.40;;;;;;;15.94;80.64;99855.23;125024;1323;115089;-69
2023/10/12 00:32:26;;;;;;;16.50;7.10;;;;;;;15.97;80.59;99851.98;125642;1319;114987;-67
2023/10/12 00:36:16;;;;;;;;;;;;;;;;;;;;;
2023/10/12 00:43:45;;;;;;;;;;;;;;;15.99;80.27;99838.50;123820;1317;115046;-69
2023/10/12 00:52:22;;;;;;;14.80;7.00;;;;;;;15.96;80.14;99838.70;126299;1295;635971;-68
2023/10/12 00:56:15;;;;;;;10.30;6.00;;;;;;;15.92;80.07;99831.79;127176;1283;128257;-67
2023/10/12 00:59:56;;;;;;;;;;;;;;;;;;;;;
2023/10/12 01:03:59;;;;;;;14.60;6.60;;;;;;;15.89;80.05;99828.27;125836;1296;5599029;-69
2023/10/12 01:08:01;;;;;;;13.00;7.30;;;;;;;15.85;79.87;99825.13;125296;1306;114949;-71
2023/10/12 01:11:54;;;;;;;12.00;6.90;;;;;;;15.81;80.00;99819.33;124770;1326;129525;-68
2023/10/12 01:15:28;;;;;;;;;;;;;;;;;;;;;
2023/10/12 01:23:22;;;;;;;13.70;7.20;;;;;;;15.64;80.15;99801.41;123600;1337;114957;-70
2023/10/12 01:27:21;;;;;;;18.00;9.30;;;;;;;15.56;80.02;99797.90;123538;1337;115014;-73
2023/10/12 01:31:14;;;;;;;15.90;7.50;;;;;;;15.47;80.26;99789.58;122983;1324;129886;-67
2023/10/12 01:39:14;;;;;;;15.50;6.30;;;;;;;15.28;80.48;99786.70;124625;1316;114991;-75
2023/10/12 01:46:32;;;;;;;3.60;3.30;;;;;;;15.10;80.83;99795.45;124235;1324;114893;-75
2023/10/12 01:50:28;;;;;;;18.80;7.30;;;;;;;15.03;80.90;99792.41;125441;1321;128735;-76
2023/10/12 01:54:12;;;;;;;;;;;;;;;;;;;;;
2023/10/12 02:02:14;;;;;;;13.20;6.80;;;;;;;14.85;81.37;99782.64;125654;1317;115465;-68
2023/10/12 02:06:32;;;;;;;13.10;7.40;;;;;;;14.80;81.57;99778.47;125434;1321;114965;-69
2023/10/12 02:10:11;;;;;;;17.20;7.60;;;;;;;14.77;82.00;99782.17;125460;1320;128494;-71
2023/10/12 02:18:00;;;;;;;;;;;;;;;;;;;;;
2023/10/12 02:22:01;;;;;;;9.50;5.90;;;;;;;14.63;82.14;99784.40;125179;1323;115038;-73
2023/10/12 02:25:59;;;;;;;14.60;7.30;;;;;;;14.56;82.16;99780.77;125155;1308;114904;-75
2023/10/12 02:29:59;;;;;;;12.40;6.80;;;;;;;14.49;82.31;99785.96;124912;1310;130045;-76
2023/10/12 02:33:37;;;;;;;;;;;;;;;;;;;;;
2023/10/12 02:41:55;;;;;;;;;;;;;;;;;;;;;
2023/10/12 02:45:53;;;;;;;;;;;;;;;;;;;;;
2023/10/12 02:50:01;;;;;;;16.30;9.20;;;;;;;14.09;82.66;99798.95;127057;1288;115454;-77
2023/10/12 02:54:02;;;;;;;22.50;7.80;;;;;;;14.03;83.14;99795.06;121866;1312;5419740;-77
2023/10/12 02:58:06;;;;;;;17.40;7.40;;;;;;;14.02;83.30;99792.23;124826;1312;114981;-75
2023/10/12 03:02:18;;;;;;;14.40;7.20;;;;;;;14.04;83.61;99787.11;123323;1339;115024;-75
2023/10/12 03:10:35;;;;;;;17.40;8.00;;;;;;;14.13;83.81;99782.64;126258;1295;636843;-76
2023/10/12 03:13:47;;;;;;;;;;;;;;;;;;;;;
2023/10/12 03:17:40;;;;;;;;;;;;;;;;;;;;;
2023/10/12 03:21:37;;;;;;;;;;;;;;;;;;;;;
2023/10/12 03:26:18;;;;;;;16.60;6.90;;;;;;;14.21;83.76;99772.55;122828;1304;114966;-72
2023/10/12 03:29:51;;;;;;;16.40;8.10;;;;;;;14.22;83.67;99772.88;125045;1316;115390;-73
2023/10/12 03:33:30;;;;;;;;;;;;;;;;;;;;;
2023/10/12 03:38:12;;;;;;;14.80;7.00;;;;;;;14.28;83.78;99759.68;125965;1296;636266;-75
2023/10/12 03:49:35;;;;;;;16.00;6.90;;;;;;;14.28;83.74;99757.84;123159;1299;5411150;-74
2023/10/12 03:53:26;;;;;;;16.00;6.40;;;;;;;14.28;83.50;99756.77;127906;1276;114930;-72
2023/10/12 03:57:19;;;;;;;13.30;7.20;;;;;;;14.28;83.60;99752.32;128094;1290;114919;-74
2023/10/12 04:09:15;;;;;;;11.40;6.80;;;;;;;14.27;83.67;99750.40;126955;1290;115253;-74
2023/10/12 04:17:20;;;;;;;14.80;7.30;;;;;;;14.30;83.72;99754.36;126761;1305;115301;-73
2023/10/12 04:20:56;;;;;;;22.50;7.40;;;;;;;14.31;83.76;99755.86;125819;1314;115153;-70
2023/10/12 04:24:58;;;;;;;;;;;;;;;;;;;;;
2023/10/12 04:28:37;;;;;;;18.20;6.60;;;;;;;14.33;83.74;99755.35;126135;1298;115973;-70
2023/10/12 04:36:32;;;;;;;;;;;;;;;;;;;;;
2023/10/12 04:48:29;;;;;;;;;;;;;;;;;;;;;
2023/10/12 04:56:05;;;;;;;22.10;7.30;;;;;;;14.46;83.29;99770.42;122570;1295;114987;-70
2023/10/12 05:00:11;;;;;;;14.30;5.70;;;;;;;14.48;83.30;99765.91;125333;1299;115033;-70
2023/10/12 05:03:33;;;;;;;16.10;7.00;;;;;;;14.50;83.19;99768.49;124721;1326;115328;-73
2023/10/12 05:07:27;;;;;;;17.40;5.90;;;;;;;14.52;83.21;99776.02;124765;1318;129922;-68
2023/10/12 05:11:01;;;;;;;30.50;6.20;;;;;;;14.55;83.23;99780.67;124924;1326;115020;-70
2023/10/12 05:14:47;;;;;;;19.90;6.00;;;;;;;14.59;83.33;99772.28;123766;1331;114939;-68
2023/10/12 05:18:47;;;;;;;15.10;7.10;;;;;;;14.66;83.19;99774.09;123845;1317;114968;-68
2023/10/12 05:22:43;;;;;;;23.00;7.50;;;;;;;14.74;83.21;99780.55;123850;1316;114989;-71
2023/10/12 05:31:01;;;;;;;;;;;;;;;;;;;;;
2023/10/12 05:39:11;;;;;;;19.00;6.90;;;;;;;15.09;82.93;99790.32;127802;1301;114948;-72
2023/10/12 05:47:03;;;;;;;16.40;5.70;;;;;;;15.26;82.58;99802.88;127449;1280;115028;-71
2023/10/12 05:50:57;;;;;;;19.60;6.40;;;;;;;15.34;82.38;99799.59;126669;1286;114910;-68
2023/10/12 05:54:40;;;;;;;16.20;6.00;;;;;;;15.41;82.22;99807.64;126234;1295;114764;-70
2023/10/12 05:58:43;;;;;;;14.20;6.50;;;;;;;15.49;82.15;99808.86;125921;1316;127221;-69
2023/10/12 06:02:22;;;;;;;;;;;;;;;;;;;;;
2023/10/12 06:10:31;;;;;;;16.80;7.10;;;;;;;15.81;81.85;99816.65;125630;1300;635731;-72
2023/10/12 06:13:39;;;;;;;18.00;6.30;;;;;;;15.92;81.82;99827.27;128409;1294;129526;-71
2023/10/12 06:17:49;;;;;;;;;;;;;;;;;;;;;
2023/10/12 06:21:35;;;;;;;22.30;6.30;;;;;;;16.19;81.41;99831.45;129580;1264;114830;-69
2023/10/12 06:25:28;;;;;;;16.10;6.40;;;;;;;16.37;81.19;99839.02;125110;1267;114891;-69
2023/10/12 06:29:20;;;;;;;;;;;;;;;;;;;;;
2023/10/12 06:33:30;;;;;;;12.90;6.10;;;;;;;16.76;80.79;99851.94;128348;1280;114910;-69
2023/10/12 06:36:43;;;;;;;15.90;6.60;;;;;;;16.93;80.64;99852.11;128116;1280;129084;-69
2023/10/12 06:40:48;;;;;;;15.20;6.80;;;;;;;17.11;80.39;99855.53;127612;1293;114963;-69
2023/10/12 06:48:00;;;;;;;;;;;;;;;;;;;;;
2023/10/12 06:51:34;;;;;;;18.80;5.90;;;;;;;17.61;79.32;99849.48;126593;1299;114848;-72
2023/10/12 06:55:06;;;;;;;20.40;6.00;;;;;;;17.74;79.01;99864.48;126587;1308;128400;-70
2023/10/12 07:02:54;;;;;;;;;;;;;;;;;;;;;
2023/10/12 07:06:14;;;;;;;17.70;6.60;;;;;;;18.10;78.21;99871.34;125181;1321;114946;-71
2023/10/12 07:13:52;;;;;;;14.70;6.40;;;;;;;18.22;77.34;99885.75;125707;1302;127818;-69
2023/10/12 07:17:48;;;;;;;15.90;6.40;;;;;;;18.33;77.05;99890.10;125416;1305;115040;-69
2023/10/12 07:21:37;;;;;;;;;;;;;;;;;;;;;
2023/10/12 07:25:22;;;;;;;15.70;5.60;;;;;;;18.60;76.64;99905.77;125965;1306;115036;-71
2023/10/12 07:29:39;;;;;;;11.30;5.40;;;;;;;18.73;76.11;99908.08;126047;1298;116390;-69
2023/10/12 07:33:04;;;;;;;17.70;6.10;;;;;;;18.83;75.77;99918.02;125998;1302;129923;-67
2023/10/12 07:40:47;;;;;;;;;;;;;;;;;;;;;
2023/10/12 07:44:39;;;;;;;13.00;5.30;;;;;;;19.25;74.77;99927.95;126215;1314;115013;-68
2023/10/12 07:48:09;;;;;;;16.10;6.80;;;;;;;19.47;74.67;99937.40;125666;1320;114856;-71
2023/10/12 07:56:06;;;;;;;19.20;6.00;;;;;;;19.85;74.15;99933.61;125870;1310;115913;-68
2023/10/12 07:59:59;;;;;;;14.40;6.40;;;;;;;20.00;73.66;99935.17;126019;1308;115068;-68
2023/10/12 08:03:39;;;;;;;;;;;;;;;;;;;;;
2023/10/12 08:06:48;;;;;;;17.50;6.70;;;;;;;20.20;72.92;99941.04;125514;1312;114963;-68
2023/10/12 08:10:09;;;;;;;18.60;6.30;;;;;;;20.25;72.50;99951.54;125827;1299;129743;-68
2023/10/12 08:21:32;;;;;;;11.00;6.00;;;;;;;20.32;71.71;99969.45;125865;1312;114777;-67
2023/10/12 08:25:01;;;;;;;15.20;6.70;;;;;;;20.38;71.56;99972.73;126062;1308;114899;-68
2023/10/12 08:29:09;;;;;;;16.40;6.60;;;;;;;20.39;71.58;99974.31;126663;1291;128949;-68
2023/10/12 08:32:57;;;;;;;14.30;5.50;;;;;;;20.33;71.36;99976.86;126845;1290;116499;-68
2023/10/12 08:40:40;;;;;;;14.00;6.40;;;;;;;20.29;71.32;99986.42;125981;1313;114939;-67
2023/10/12 08:44:34;;;;;;;13.20;6.10;;;;;;;20.33;71.07;99990.80;126287;1298;114942;-67
2023/10/12 08:47:56;;;;;;;18.30;6.00;;;;;;;20.36;71.20;99991.92;126649;1288;127999;-68
2023/10/12 08:52:04;;;;;;;15.30;6.20;;;;;;;20.42;71.24;99993.05;126800;1306;116392;-67
2023/10/12 08:55:36;;;;;;;;;;;;;;;;;;;;;
2023/10/12 08:59:39;;;;;;;15.40;5.50;;;;;;;20.44;70.76;99990.10;127296;1302;114913;-69
2023/10/12 09:07:04;;;;;;;;;;;;;;;;;;;;;
2023/10/12 09:11:33;;;;;;;14.10;6.40;;;;;;;20.47;70.60;100008.11;126844;1307;115230;-68
2023/10/12 09:14:47;;;;;;;11.60;5.70;;;;;;;20.52;70.64;100014.61;126978;1303;114792;-68
2023/10/12 09:18:57;;;;;;;14.90;5.80;;;;;;;20.57;70.22;100021.11;126590;1283;114827;-67
2023/10/12 09:22:46;;;;;;;12.10;5.80;;;;;;;20.63;70.50;100018.92;126016;1299;114892;-67
2023/10/12 09:27:11;;;;;;;12.80;5.90;;;;;;;20.72;70.36;100016.85;125681;1301;128861;-72
2023/10/12 09:30:35;;;;;;;20.30;6.60;;;;;;;20.76;70.12;100014.48;125152;1313;116676;-68
2023/10/12 09:38:22;;;;;;;13.40;6.30;;;;;;;20.82;70.26;100023.92;124339;1332;114962;-69
2023/10/12 09:46:37;;;;;;;;;;;;;;;;;;;;;
2023/10/12 09:50:37;;;;;;;14.80;6.90;;;;;;;20.93;70.95;100039.70;128545;1295;129261;-73
2023/10/12 09:54:30;;;;;;;18.40;6.90;;;;;;;20.98;70.90;100027.64;128400;1296;115270;-69
2023/10/12 09:57:50;;;;;;;17.20;5.80;;;;;;;20.92;70.45;100045.41;127544;1280;114807;-69
2023/10/12 10:05:51;;;;;;;10.40;6.00;;;;;;;20.77;70.89;100059.69;128055;1283;114867;-70
2023/10/12 10:13:23;;;;;;;14.40;5.50;;;;;;;20.57;70.96;100078.67;127320;1305;128867;-70
2023/10/12 10:17:46;;;;;;;11.00;5.20;;;;;;;20.48;71.30;100081.66;127018;1295;114993;-68
2023/10/12 10:20:51;;;;;;;17.00;6.10;;;;;;;20.39;71.55;100085.05;127218;1298;116795;-69
2023/10/12 10:24:27;;;;;;;10.90;6.30;;;;;;;20.31;71.92;100083.68;126964;1284;114997;-68
2023/10/12 10:28:02;;;;;;;;;;;;;;;;;;;;;
2023/10/12 10:31:46;;;;;;;10.30;5.80;;;;;;;20.16;72.54;100079.22;127623;1300;129088;-69
2023/10/12 10:35:25;;;;;;;18.30;6.80;;;;;;;20.10;73.26;100088.66;128376;1293;115343;-68
2023/10/12 10:43:20;;;;;;;;;;;;;;;;;;;;;
2023/10/12 10:46:41;;;;;;;;;;;;;;;;;;;;;
2023/10/12 10:50:03;;;;;;;13.50;6.10;;;;;;;20.05;74.50;100083.91;128373;1296;128955;-69
2023/10/12 10:53:51;;;;;;;10.20;5.90;;;;;;;20.00;74.50;100089.20;128186;1296;115193;-70
2023/10/12 10:57:23;;;;;;;15.20;6.50;;;;;;;19.98;75.01;100089.46;128194;1279;114840;-68
2023/10/12 11:00:36;;;;;;;12.70;5.90;;;;;;;19.93;75.23;100088.45;128774;1265;114885;-70
2023/10/12 11:03:46;;;;;;;10.60;6.60;;;;;;;19.89;75.61;100087.14;129008;1270;115582;-70
2023/10/12 11:06:57;;;;;;;16.50;6.80;;;;;;;19.87;75.94;100090.41;129291;1278;128069;-70
2023/10/12 11:10:12;;;;;;;12.20;6.40;;;;;;;19.82;75.74;100086.73;129126;1269;115216;-70
2023/10/12 11:13:39;;;;;;;13.50;7.10;;;;;;;19.73;76.07;100086.64;128916;1289;114869;-70
2023/10/12 11:17:06;;;;;;;18.90;8.20;;;;;;;19.69;76.66;100094.42;129434;1275;115186;-69
2023/10/12 11:21:18;;;;;;;19.80;8.10;;;;;;;19.68;76.88;100091.96;129728;1259;114933;-70
2023/10/12 11:25:27;;;;;;;17.10;8.00;;;;;;;19.62;76.93;100088.73;129870;1264;129051;-69
2023/10/12 11:28:49;;;;;;;11.60;6.10;;;;;;;19.50;77.07;100088.94;128980;1289;115203;-69
2023/10/12 11:32:46;;;;;;;15.50;8.30;;;;;;;19.45;77.49;100085.19;129219;1268;114896;-69
2023/10/12 11:36:09;;;;;;;16.90;7.70;;;;;;;19.41;77.67;100086.20;128992;1266;114901;-68
2023/10/12 11:39:50;;;;;;;17.20;6.90;;;;;;;19.39;77.83;100088.75;129092;1271;114934;-70
2023/10/12 11:43:31;;;;;;;11.90;7.10;;;;;;;19.40;78.18;100090.86;128575;1289;126737;-69
2023/10/12 11:46:51;;;;;;;18.50;7.80;;;;;;;19.39;78.22;100095.11;129037;1273;115427;-69
2023/10/12 11:50:32;;;;;;;17.50;7.60;;;;;;;19.36;78.56;100093.77;129272;1271;115030;-69
2023/10/12 11:54:33;;;;;;;16.10;8.20;;;;;;;19.33;78.68;100094.96;128037;1281;114913;-70
2023/10/12 11:58:05;;;;;;;15.20;7.70;;;;;;;19.24;78.59;100103.51;128629;1270;114937;-70
2023/10/12 12:01:20;;;;;;;19.30;7.30;;;;;;;19.13;78.92;100109.15;128876;1282;129220;-69
2023/10/12 12:04:43;;;;;;;12.50;7.00;;;;;;;18.99;79.00;100108.40;129557;1270;115249;-69
2023/10/12 12:07:59;;;;;;;14.20;8.10;;;;;;;18.87;79.54;100109.66;129753;1276;115246;-70
2023/10/12 12:11:20;;;;;;;;;;;;;;;;;;;;;
2023/10/12 12:14:57;;;;;;;13.50;7.40;;;;;;;18.69;80.12;100108.64;130070;1276;114738;-68
2023/10/12 12:18:09;;;;;;;13.00;8.60;;;;;;;18.62;80.48;100105.23;130011;1256;128764;-68
2023/10/12 12:21:39;;;;;;;17.80;8.20;;;;;;;18.56;80.85;100104.50;129763;1262;115163;-67
2023/10/12 12:24:57;;;;;;;16.20;7.80;;;;;;;18.50;81.27;100100.82;130023;1257;114865;-68
2023/10/12 12:32:18;;;;;;;19.60;8.60;;;;;;;18.50;82.06;100101.55;129712;1262;114862;-68
2023/10/12 12:35:22;;;;;;;18.90;8.20;;;;;;;18.51;82.19;100097.66;129776;1264;129919;-68
2023/10/12 12:42:52;;;;;;;;;;;;;;;;;;;;;
2023/10/12 12:46:18;;;;;;;;;;;;;;;;;;;;;
2023/10/12 12:49:36;;;;;;;;;;;;;;;18.48;83.30;100102.31;128672;1287;115017;-68
2023/10/12 12:52:57;;;;;;;24.10;9.70;;;;;;;18.46;83.32;100106.08;128309;1294;128562;-68
2023/10/12 12:56:28;;;;;;;19.30;9.10;;;;;;;18.43;83.63;100099.31;128531;1271;115293;-68
2023/10/12 12:59:43;;;;;;;;;;;;;;;;;;;;;
2023/10/12 13:03:33;;;;;;;18.30;10.00;;;;;;;18.41;83.90;100099.67;128279;1287;114983;-67
2023/10/12 13:06:56;;;;;;;13.10;9.40;;;;;;;18.39;84.16;100099.25;128568;1276;114996;-67
2023/10/12 13:10:18;;;;;;;18.10;9.20;;;;;;;18.35;84.29;100095.77;128840;1290;129328;-67
2023/10/12 13:13:36;;;;;;;18.10;9.20;;;;;;;18.31;84.56;100095.41;128749;1285;115465;-67
2023/10/12 13:17:18;;;;;;;17.50;9.70;;;;;;;18.29;84.60;100097.98;128778;1268;114953;-67
2023/10/12 13:20:40;;;;;;;22.60;10.80;;;;;;;18.25;84.98;100094.56;129201;1278;114908;-67
2023/10/12 13:24:22;;;;;;;17.80;9.60;;;;;;;18.19;85.13;100073.48;129716;1257;114770;-68
2023/10/12 13:27:56;;;;;;;18.30;9.20;;;;;;;18.11;85.23;100075.10;129996;1277;129493;-66
2023/10/12 13:31:11;;;;;;;17.20;6.60;;;;;;;18.03;85.29;100086.73;130431;1257;115164;-68
2023/10/12 13:35:00;;;;;;;18.60;8.90;;;;;;;17.96;85.47;100086.27;130025;1254;114763;-67
2023/10/12 13:38:33;;;;;;;16.90;7.80;;;;;;;17.91;85.72;100093.19;129699;1277;114857;-67
2023/10/12 13:42:11;;;;;;;15.50;8.20;;;;;;;17.85;85.83;100102.13;129481;1253;114878;-67
2023/10/12 13:45:48;;;;;;;12.40;7.80;;;;;;;17.79;86.25;100103.90;130002;1277;131069;-66
2023/10/12 13:49:30;;;;;;;17.00;7.90;;;;;;;17.75;86.26;100103.70;129750;1272;115259;-67
2023/10/12 13:53:07;;;;;;;12.40;7.30;;;;;;;17.70;86.62;100102.45;130041;1254;115111;-67
2023/10/12 13:56:56;;;;;;;;;;;;;;;;;;;;;
2023/10/12 14:00:51;;;;;;;;;;;;;;;;;;;;;
2023/10/12 14:04:49;;;;;;;17.70;9.40;;;;;;;17.57;87.18;100106.41;128469;1296;128945;-68
2023/10/12 14:08:42;;;;;;;13.60;7.10;;;;;;;17.52;87.36;100110.64;128248;1277;114785;-67
2023/10/12 14:12:15;;;;;;;12.80;6.70;;;;;;;17.44;87.13;100114.17;127542;1282;114907;-68
2023/10/12 14:16:21;;;;;;;13.30;6.30;;;;;;;17.35;87.32;100114.75;127599;1280;114756;-68
2023/10/12 14:20:20;;;;;;;10.10;5.80;;;;;;;17.25;87.40;100119.29;126600;1308;114853;-67
2023/10/12 14:23:58;;;;;;;;;;;;;;;;;;;;;
2023/10/12 14:28:00;;;;;;;8.00;5.60;;;;;;;17.10;87.65;100131.48;125537;1295;115632;-67
2023/10/12 14:31:54;;;;;;;10.30;4.60;;;;;;;17.01;87.62;100124.27;125741;1298;114996;-67
2023/10/12 14:35:35;;;;;;;;;;;;;;;;;;;;;
2023/10/12 14:39:22;;;;;;;;;;;;;;;;;;;;;
2023/10/12 14:43:10;;;;;;;7.70;4.00;;;;;;;16.84;88.22;100125.93;126881;1282;130008;-67
2023/10/12 14:46:31;;;;;;;6.00;3.60;;;;;;;16.80;88.39;100140.85;126540;1291;115006;-67
2023/10/12 14:50:33;;;;;;;8.20;3.60;;;;;;;16.74;88.23;100151.08;126958;1304;115224;-67
2023/10/12 14:54:02;;;;;;;;;;;;;;;;;;;;;
2023/10/12 14:58:19;;;;;;;;;;;;;;;;;;;;;
2023/10/12 15:02:20;;;;;;;;;;;;;;;;;;;;;
2023/10/12 15:06:07;;;;;;;7.70;3.20;;;;;;;16.46;88.86;100159.86;126134;1295;115310;-68
2023/10/12 15:14:17;;;;;;;;;;;;;;;;;;;;;
2023/10/12 15:21:42;;;;;;;;;;;;;;;;;;;;;
2023/10/12 15:25:30;;;;;;;6.30;3.40;;;;;;;16.19;89.28;100156.88;129514;1282;114805;-67
2023/10/12 15:29:19;;;;;;;;;;;;;;;;;;;;;
2023/10/12 15:33:03;;;;;;;8.00;4.30;;;;;;;16.13;89.58;100161.15;129799;1263;116363;-67
2023/10/12 15:37:01;;;;;;;7.70;4.00;;;;;;;16.11;89.80;100170.80;130084;1275;114797;-68
2023/10/12 15:41:02;;;;;;;;;;;;;;;;;;;;;
2023/10/12 15:45:00;;;;;;;;;;;;;;;;;;;;;
2023/10/12 15:48:54;;;;;;;8.90;4.60;;;;;;;16.03;90.26;100183.80;129252;1271;114933;-67
2023/10/12 15:52:34;;;;;;;5.00;4.20;;;;;;;16.01;90.31;100183.05;129342;1277;115109;-68
2023/10/12 15:56:28;;;;;;;8.60;4.20;;;;;;;16.00;90.61;100187.32;129280;1271;114959;-66
2023/10/12 16:00:22;;;;;;;6.00;4.00;;;;;;;15.97;90.84;100188.23;129455;1283;128003;-67
2023/10/12 16:03:59;;;;;;;6.00;4.20;;;;;;;15.95;90.82;100179.57;129021;1267;115329;-67
2023/10/12 16:07:33;;;;;;;13.90;6.80;;;;;;;15.92;90.91;100178.14;129066;1269;114922;-68
2023/10/12 16:11:38;;;;;;;9.00;7.70;;;;;;;15.89;90.96;100180.72;128687;1270;116317;-66
2023/10/12 16:15:34;;;;;;;;;;;;;;;;;;;;;
2023/10/12 16:19:18;;;;;;;;;;;;;;;;;;;;;
2023/10/12 16:22:55;;;;;;;10.80;6.10;;;;;;;15.80;91.31;100180.77;128770;1290;115296;-66
2023/10/12 16:26:30;;;;;;;;;;;;;;;;;;;;;
2023/10/12 16:30:25;;;;;;;7.10;5.50;;;;;;;15.74;91.40;100189.70;128717;1273;114913;-67
2023/10/12 16:34:12;;;;;;;6.80;5.00;;;;;;;15.70;91.47;100194.15;127827;1271;114744;-67
2023/10/12 16:37:14;;;;;;;8.80;4.90;;;;;;;15.67;91.62;100199.94;128359;1278;129236;-67
2023/10/12 16:40:34;;;;;;;7.20;4.90;;;;;;;15.65;91.70;100202.97;128849;1265;114978;-65
2023/10/12 16:44:03;;;;;;;8.90;4.80;;;;;;;15.63;91.95;100209.95;129032;1265;114896;-64
2023/10/12 16:47:38;;;;;;;6.50;4.80;;;;;;;15.62;92.10;100212.18;128951;1271;114866;-67
2023/10/12 16:50:56;;;;;;;8.60;3.80;;;;;;;15.61;92.17;100213.70;128943;1276;114981;-65
2023/10/12 16:54:42;;;;;;;;;;;;;;;;;;;;;
2023/10/12 16:58:26;;;;;;;13.40;8.20;;;;;;;15.57;92.39;100215.38;129157;1270;115259;-66
2023/10/12 17:01:49;;;;;;;18.10;13.00;;;;;;;15.56;92.52;100215.48;129055;1266;115197;-66
2023/10/12 17:05:42;;;;;;;;;;;;;;;;;;;;;
2023/10/12 17:09:26;;;;;;;18.40;13.40;;;;;;;15.54;92.84;100220.13;128005;1287;114791;-66
2023/10/12 17:13:05;;;;;;;14.90;13.00;;;;;;;15.53;92.97;100220.00;128561;1276;128586;-65
2023/10/12 17:16:44;;;;;;;26.50;12.20;;;;;;;15.53;92.98;100222.58;129048;1288;115274;-65
2023/10/12 17:20:11;;;;;;;18.10;11.30;;;;;;;15.51;92.99;100226.77;128608;1290;114931;-65
2023/10/12 17:23:38;;;;;;;13.80;10.80;;;;;;;15.50;93.07;100226.50;128766;1273;114887;-64
2023/10/12 17:26:51;;;;;;;12.80;11.20;;;;;;;15.49;93.16;100230.86;128858;1267;114859;-66
2023/10/12 17:30:24;;;;;;;16.20;9.70;;;;;;;15.48;93.34;100228.09;128794;1268;127527;-66
2023/10/12 17:34:07;;;;;;;13.30;9.60;;;;;;;15.48;93.34;100231.16;128912;1267;115269;-66
2023/10/12 17:37:33;;;;;;;10.00;8.00;;;;;;;15.47;93.62;100230.69;129532;1263;114799;-65
2023/10/12 17:41:00;;;;;;;15.40;9.70;;;;;;;15.45;93.47;100230.81;129537;1259;114914;-67
2023/10/12 17:44:26;;;;;;;16.30;9.30;;;;;;;15.45;93.59;100227.25;129049;1266;114966;-67
2023/10/12 17:48:28;;;;;;;;;;;;;;;;;;;;;
2023/10/12 17:52:17;;;;;;;13.70;6.90;;;;;;;15.43;94.00;100228.10;128518;1293;115376;-67
2023/10/12 17:56:16;;;;;;;;;;;;;;;;;;;;;
2023/10/12 18:00:04;;;;;;;9.50;6.50;;;;;;;15.41;94.07;100223.54;127690;1281;114931;-66
2023/10/12 18:03:24;;;;;;;;;;;;;;;15.40;94.17;100219.48;126926;1289;114890;-69
2023/10/12 18:06:38;;;;;;;10.80;6.70;;;;;;;15.38;94.37;100214.58;127071;1307;130736;-67
2023/10/12 18:09:49;;;;;;;9.50;6.90;;;;;;;15.37;94.25;100211.77;127093;1290;115216;-68
2023/10/12 18:13:10;;;;;;;12.20;8.10;;;;;;;15.37;94.38;100221.14;126941;1284;114838;-67
2023/10/12 18:16:56;;;;;;;13.90;7.80;;;;;;;15.36;94.52;100223.55;126872;1307;115058;-69
2023/10/12 18:20:24;;;;;;;;;;;;;;;;;;;;;
2023/10/12 18:23:28;;;;;;;14.80;10.30;;;;;;;15.35;94.59;100223.44;126295;1305;129734;-65
2023/10/12 18:26:34;;;;;;;17.90;11.00;;;;;;;15.33;94.77;100228.56;126634;1292;114880;-68
2023/10/12 18:29:56;;;;;;;25.10;11.60;;;;;;;15.31;94.79;100231.11;127861;1284;114817;-68
2023/10/12 18:33:23;;;;;;;14.40;11.00;;;;;;;15.28;94.52;100230.60;127387;1286;115555;-64
2023/10/12 18:36:44;;;;;;;21.20;11.60;;;;;;;15.22;94.65;100234.94;128428;1268;115850;-67
2023/10/12 18:40:16;;;;;;;;;;;;;;;;;;;;;
2023/10/12 18:43:44;;;;;;;16.00;10.80;;;;;;;15.14;94.88;100238.73;129428;1259;115648;-66
2023/10/12 18:47:27;;;;;;;17.40;11.30;;;;;;;15.11;95.05;100235.37;129709;1265;114841;-68
2023/10/12 18:50:47;;;;;;;14.20;10.60;;;;;;;15.09;94.94;100239.30;129803;1264;114865;-68
2023/10/12 18:54:05;;;;;;;;;;;;;;;;;;;;;
2023/10/12 18:57:27;;;;;;;14.90;12.70;;;;;;;15.06;95.24;100239.83;130188;1275;127882;-63
2023/10/12 19:00:35;;;;;;;15.70;11.70;;;;;;;15.05;95.31;100238.14;130647;1256;115227;-63
2023/10/12 19:03:43;;;;;;;18.10;13.50;;;;;;;15.02;95.59;100242.60;130515;1254;114738;-66
2023/10/12 19:06:57;;;;;;;18.90;13.00;;;;;;;15.00;95.44;100239.33;130637;1256;114746;-65
2023/10/12 19:09:59;;;;;;;17.20;11.80;;;;;;;14.98;95.56;100234.32;130620;1257;114647;-62
2023/10/12 19:13:15;;;;;;;17.70;12.10;;;;;;;14.95;95.41;100235.05;130432;1256;114793;-64
2023/10/12 19:16:22;;;;;;;19.50;12.20;;;;;;;14.90;95.47;100236.95;130647;1254;115173;-63
2023/10/12 19:19:35;;;;;;;18.40;12.70;;;;;;;14.86;95.26;100235.10;129743;1261;114731;-63
2023/10/12 19:22:49;;;;;;;21.80;12.10;;;;;;;14.82;95.43;100240.27;129904;1259;114828;-65
2023/10/12 19:26:16;;;;;;;21.00;13.90;;;;;;;14.77;95.49;100244.69;130785;1258;114814;-63
2023/10/12 19:29:22;;;;;;;21.40;12.70;;;;;;;14.72;95.50;100240.69;130556;1256;127861;-63
2023/10/12 19:32:48;;;;;;;18.80;10.80;;;;;;;14.68;95.52;100238.10;130457;1254;114708;-63
2023/10/12 19:36:34;;;;;;;22.30;10.30;;;;;;;14.61;95.46;100244.30;130316;1256;114738;-65
2023/10/12 19:40:19;;;;;;;;;;;;;;;;;;;;;
2023/10/12 19:43:46;;;;;;;14.80;9.30;;;;;;;14.47;95.42;100251.01;130052;1264;114804;-64
2023/10/12 19:47:44;;;;;;;19.00;9.90;;;;;;;14.39;95.09;100250.63;128873;1271;129107;-62
2023/10/12 19:51:13;;;;;;;23.00;12.90;;;;;;;14.29;95.34;100248.73;128940;1271;114826;-64
2023/10/12 19:54:24;;;;;;;16.30;10.30;;;;;;;14.21;95.13;100252.52;128738;1271;114939;-60
2023/10/12 19:57:38;;;;;;;17.10;9.70;;;;;;;14.14;95.20;100252.22;128840;1268;115014;-61
2023/10/12 20:00:41;;;;;;;21.80;10.60;;;;;;;14.08;95.28;100251.94;128868;1271;114816;-62
2023/10/12 20:04:03;;;;;;;14.40;10.60;;;;;;;14.03;95.40;100247.39;128805;1290;114867;-61
2023/10/12 20:07:23;;;;;;;45.00;30.90;;;;;;;13.98;95.29;100250.42;128595;1290;114835;-65
2023/10/12 20:10:45;;;;;;;;;;;;;;;;;;;;;
2023/10/12 20:14:10;;;;;;;19.70;11.10;;;;;;;13.85;95.36;100248.71;128659;1271;114864;-62
2023/10/12 20:17:15;;;;;;;19.00;10.30;;;;;;;13.78;95.10;100251.34;128726;1290;115574;-61
2023/10/12 20:20:19;;;;;;;19.00;10.40;;;;;;;13.71;95.18;100247.27;129120;1259;128521;-61
2023/10/12 20:23:36;;;;;;;14.70;10.10;;;;;;;13.64;95.23;100243.91;129620;1263;115237;-61
2023/10/12 20:26:50;;;;;;;13.80;9.50;;;;;;;13.60;95.43;100247.08;130228;1260;114737;-63
2023/10/12 20:29:57;;;;;;;13.60;9.10;;;;;;;13.56;95.52;100245.34;130250;1253;114795;-62
2023/10/12 20:33:08;;;;;;;17.90;9.60;;;;;;;13.53;95.69;100243.02;130169;1275;114769;-61
2023/10/12 20:36:21;;;;;;;17.10;9.20;;;;;;;13.51;96.05;100239.16;130153;1270;128843;-61
2023/10/12 20:39:26;;;;;;;23.40;10.90;;;;;;;13.52;96.17;100240.54;130029;1273;115284;-61
2023/10/12 20:42:34;;;;;;;15.20;8.80;;;;;;;13.55;96.48;100238.98;130112;1257;114715;-63
2023/10/12 20:46:07;;;;;;;21.10;10.70;;;;;;;13.56;96.59;100237.45;130096;1274;114888;-60
2023/10/12 20:49:13;;;;;;;15.80;9.50;;;;;;;13.59;96.53;100237.98;129568;1281;114965;-62
2023/10/12 20:52:38;;;;;;;14.90;9.30;;;;;;;13.61;96.51;100240.55;129467;1270;129003;-62
2023/10/12 20:56:06;;;;;;;;;;;;;;;13.63;96.60;100239.38;129503;1260;115501;-62
2023/10/12 20:59:32;;;;;;;16.70;9.30;;;;;;;13.63;96.92;100237.02;129482;1257;116138;-61
2023/10/12 21:03:10;;;;;;;21.80;11.30;;;;;;;13.62;96.70;100230.23;129469;1281;114850;-61
2023/10/12 21:06:31;;;;;;;16.10;8.60;;;;;;;13.63;96.60;100232.02;129497;1262;114834;-61
2023/10/12 21:13:15;;;;;;;22.50;9.20;;;;;;;13.62;96.80;100227.20;131347;1257;114658;-71
2023/10/12 21:16:20;;;;;;;14.70;8.20;;;;;;;13.62;96.72;100228.44;130176;1262;115177;-71
2023/10/12 21:19:25;;;;;;;14.30;8.40;;;;;;;13.63;96.94;100226.60;129981;1263;114760;-71